createdAt,value
2019-02-26T00:02:02.705Z,101918.39
2019-02-26T00:04:32.741Z,101916.34
2019-02-26T00:07:02.905Z,101920.05
2019-02-26T00:09:35.023Z,101923.89
2019-02-26T00:12:03.875Z,101912.36
2019-02-26T00:14:33.087Z,101905.47
2019-02-26T00:17:06.167Z,101903.28
2019-02-26T00:19:33.556Z,101904.63
2019-02-26T00:22:02.794Z,101914.33
2019-02-26T00:24:35.071Z,101907.97
2019-02-26T00:29:38.221Z,101908.30
2019-02-26T00:32:09.951Z,101911.33
2019-02-26T00:34:41.090Z,101905.59
2019-02-26T00:37:10.921Z,101907.06
2019-02-26T00:39:40.414Z,101906.89
2019-02-26T00:42:09.638Z,101897.02
2019-02-26T00:44:39.399Z,101896.03
2019-02-26T00:47:09.109Z,101893.54
2019-02-26T00:49:38.297Z,101891.22
2019-02-26T00:52:08.698Z,101894.75
2019-02-26T00:54:39.329Z,101888.39
2019-02-26T00:57:11.548Z,101875.32
2019-02-26T01:02:09.135Z,101873.14
2019-02-26T01:04:39.609Z,101872.48
2019-02-26T01:07:11.007Z,101870.80
2019-02-26T01:09:40.217Z,101870.44
2019-02-26T01:12:11.792Z,101872.35
2019-02-26T01:14:43.585Z,101864.61
2019-02-26T01:17:14.803Z,101867.87
2019-02-26T01:19:44.492Z,101862.05
2019-02-26T01:22:13.719Z,101860.01
2019-02-26T01:24:43.585Z,101858.92
2019-02-26T01:27:12.842Z,101861.62
2019-02-26T01:29:47.332Z,101860.28
2019-02-26T01:54:35.694Z,101859.05
2019-02-26T01:57:08.628Z,101856.64
2019-02-26T01:59:36.107Z,101857.00
2019-02-26T02:02:05.604Z,101854.81
2019-02-26T02:04:37.095Z,101857.67
2019-02-26T02:07:06.747Z,101856.30
2019-02-26T02:09:36.004Z,101860.23
2019-02-26T02:12:07.133Z,101851.44
2019-02-26T02:14:37.324Z,101864.91
2019-02-26T02:17:08.358Z,101874.44
2019-02-26T02:19:38.485Z,101873.59
2019-02-26T02:22:07.681Z,101874.08
2019-02-26T02:24:39.237Z,101878.39
2019-02-26T02:27:08.716Z,101876.09
2019-02-26T02:29:41.774Z,101870.66
2019-02-26T02:32:09.548Z,101867.52
2019-02-26T02:34:40.023Z,101866.02
2019-02-26T02:37:10.037Z,101857.34
2019-02-26T02:39:39.539Z,101849.86
2019-02-26T02:42:10.878Z,101842.50
2019-02-26T02:44:42.385Z,101840.69
2019-02-26T02:47:12.102Z,101837.15
2019-02-26T02:49:42.480Z,101827.95
2019-02-26T02:52:13.264Z,101828.97
2019-02-26T02:54:44.198Z,101828.34
2019-02-26T02:57:13.444Z,101828.67
2019-02-26T02:59:43.268Z,101822.66
2019-02-26T03:05:02.619Z,101814.00
2019-02-26T03:07:32.098Z,101806.95
2019-02-26T03:10:06.663Z,101805.61
2019-02-26T03:12:35.723Z,101807.63
2019-02-26T03:15:08.056Z,101805.12
2019-02-26T03:17:36.588Z,101806.47
2019-02-26T03:20:07.671Z,101807.50
2019-02-26T03:22:39.696Z,101804.47
2019-02-26T03:25:50.526Z,101805.97
2019-02-26T03:28:19.969Z,101800.07
2019-02-26T03:30:49.187Z,101793.55
2019-02-26T03:33:18.471Z,101785.83
2019-02-26T03:35:48.349Z,101784.30
2019-02-26T03:38:20.627Z,101780.59
2019-02-26T03:40:51.899Z,101773.57
2019-02-26T03:43:21.933Z,101780.92
2019-02-26T03:45:52.006Z,101768.53
2019-02-26T03:48:21.228Z,101768.87
2019-02-26T03:50:50.624Z,101767.85
2019-02-26T03:53:20.129Z,101766.19
2019-02-26T03:55:49.827Z,101773.52
2019-02-26T03:58:19.320Z,101774.71
2019-02-26T04:00:49.215Z,101773.66
2019-02-26T04:03:18.989Z,101784.14
2019-02-26T04:05:48.808Z,101774.78
2019-02-26T04:08:20.102Z,101778.74
2019-02-26T04:13:24.321Z,101773.11
2019-02-26T04:15:56.335Z,101772.43
2019-02-26T04:18:25.103Z,101774.73
2019-02-26T04:20:56.817Z,101769.33
2019-02-26T04:23:27.557Z,101770.28
2019-02-26T04:26:32.239Z,101773.62
2019-02-26T04:29:25.561Z,101768.55
2019-02-26T04:32:35.581Z,101760.80
2019-02-26T04:57:22.975Z,101780.10
2019-02-26T04:59:52.793Z,101791.97
2019-02-26T05:02:22.677Z,101797.48
2019-02-26T05:04:53.104Z,101802.83
2019-02-26T05:07:22.943Z,101812.51
2019-02-26T05:09:55.834Z,101819.84
2019-02-26T05:13:06.450Z,101826.14
2019-02-26T05:15:34.398Z,101826.86
2019-02-26T05:18:03.657Z,101829.98
2019-02-26T05:20:34.160Z,101835.98
2019-02-26T05:23:06.342Z,101825.42
2019-02-26T05:25:39.231Z,101820.77
2019-02-26T05:28:10.041Z,101823.28
2019-02-26T05:30:40.438Z,101826.80
2019-02-26T05:33:11.251Z,101832.30
2019-02-26T05:35:43.808Z,101836.64
2019-02-26T05:38:12.175Z,101833.70
2019-02-26T05:40:42.749Z,101830.48
2019-02-26T05:43:13.470Z,101834.81
2019-02-26T05:45:43.056Z,101839.08
2019-02-26T05:48:13.217Z,101849.41
2019-02-26T05:50:44.918Z,101854.02
2019-02-26T05:53:15.353Z,101851.88
2019-02-26T05:56:03.909Z,101856.93
2019-02-26T05:58:36.050Z,101857.94
2019-02-26T06:01:04.636Z,101864.27
2019-02-26T06:03:34.498Z,101859.28
2019-02-26T06:06:04.088Z,101851.39
2019-02-26T06:08:35.851Z,101854.13
2019-02-26T06:11:04.544Z,101852.99
2019-02-26T06:13:38.249Z,101851.44
2019-02-26T06:16:07.699Z,101849.45
2019-02-26T06:18:36.969Z,101844.53
2019-02-26T06:21:06.213Z,101846.80
2019-02-26T06:23:36.687Z,101846.41
2019-02-26T06:28:38.057Z,101838.56
2019-02-26T06:31:25.817Z,101848.80
2019-02-26T06:33:55.185Z,101848.80
2019-02-26T06:36:25.866Z,101850.80
2019-02-26T06:41:32.855Z,101856.89
2019-02-26T06:44:02.973Z,101855.47
2019-02-26T06:46:33.700Z,101858.20
2019-02-26T06:49:04.798Z,101859.94
2019-02-26T06:51:34.635Z,101861.44
2019-02-26T06:54:03.918Z,101861.41
2019-02-26T06:56:37.090Z,101861.47
2019-02-26T06:59:12.110Z,101859.56
2019-02-26T07:01:42.122Z,101859.61
2019-02-26T07:04:20.004Z,101859.64
2019-02-26T07:06:49.671Z,101859.31
2019-02-26T07:09:20.500Z,101858.98
2019-02-26T07:17:21.820Z,101861.22
2019-02-26T07:20:10.678Z,101853.52
2019-02-26T07:22:41.562Z,101856.59
2019-02-26T07:25:13.865Z,101847.95
2019-02-26T07:27:43.608Z,101853.02
2019-02-26T07:30:13.368Z,101850.54
2019-02-26T07:32:45.731Z,101847.72
2019-02-26T07:35:16.621Z,101845.95
2019-02-26T07:37:45.679Z,101842.14
2019-02-26T07:40:16.034Z,101839.52
2019-02-26T07:42:49.172Z,101838.53
2019-02-26T07:45:19.874Z,101843.27
2019-02-26T07:47:52.862Z,101842.97
2019-02-26T07:50:34.129Z,101843.64
2019-02-26T07:53:02.257Z,101840.78
2019-02-26T07:55:33.546Z,101823.98
2019-02-26T07:58:06.052Z,101824.82
2019-02-26T08:00:37.232Z,101823.47
2019-02-26T08:03:06.415Z,101824.64
2019-02-26T08:05:36.641Z,101820.78
2019-02-26T08:08:10.193Z,101821.44
2019-02-26T08:10:42.815Z,101822.06
2019-02-26T08:13:12.286Z,101823.06
2019-02-26T08:15:41.499Z,101813.61
2019-02-26T08:18:11.150Z,101819.22
2019-02-26T08:20:40.913Z,101809.28
2019-02-26T08:23:10.517Z,101809.48
2019-02-26T08:25:40.026Z,101806.02
2019-02-26T08:28:09.553Z,101805.06
2019-02-26T08:30:42.294Z,101806.50
2019-02-26T08:33:10.046Z,101802.53
2019-02-26T08:35:39.612Z,101802.42
2019-02-26T08:38:09.485Z,101808.00
2019-02-26T08:40:39.019Z,101807.97
2019-02-26T08:43:08.830Z,101806.99
2019-02-26T08:45:38.379Z,101801.33
2019-02-26T08:48:07.966Z,101808.56
2019-02-26T08:50:39.065Z,101804.69
2019-02-26T08:53:08.587Z,101810.95
2019-02-26T08:55:38.104Z,101809.96
2019-02-26T08:58:09.570Z,101812.37
2019-02-26T09:00:38.890Z,101806.34
2019-02-26T09:03:10.605Z,101803.48
2019-02-26T09:05:41.033Z,101807.05
2019-02-26T09:08:11.437Z,101807.03
2019-02-26T09:10:43.738Z,101799.22
2019-02-26T09:13:14.693Z,101799.36
2019-02-26T09:15:44.939Z,101806.31
2019-02-26T09:18:15.009Z,101804.97
2019-02-26T09:20:44.792Z,101803.55
2019-02-26T09:23:18.870Z,101803.31
2019-02-26T09:25:48.586Z,101798.28
2019-02-26T09:28:17.306Z,101805.95
2019-02-26T09:30:46.757Z,101808.77
2019-02-26T09:33:15.989Z,101803.34
2019-02-26T09:35:47.466Z,101810.23
2019-02-26T09:38:17.633Z,101816.73
2019-02-26T09:40:49.982Z,101817.27
2019-02-26T09:43:21.596Z,101821.02
2019-02-26T09:45:52.887Z,101829.85
2019-02-26T09:48:22.322Z,101834.84
2019-02-26T09:50:52.331Z,101836.75
2019-02-26T09:53:22.395Z,101840.33
2019-02-26T09:55:51.595Z,101854.86
2019-02-26T09:58:23.017Z,101857.48
2019-02-26T10:00:54.067Z,101859.70
2019-02-26T10:03:23.256Z,101860.97
2019-02-26T10:05:55.103Z,101860.16
2019-02-26T10:08:25.350Z,101864.27
2019-02-26T10:10:57.670Z,101866.56
2019-02-26T10:13:27.745Z,101881.46
2019-02-26T10:15:59.206Z,101890.31
2019-02-26T10:18:30.933Z,101895.53
2019-02-26T10:21:00.264Z,101900.20
2019-02-26T10:23:32.971Z,101902.23
2019-02-26T10:26:03.453Z,101910.45
2019-02-26T10:28:35.154Z,101924.05
2019-02-26T10:31:09.144Z,101938.65
2019-02-26T10:33:38.656Z,101940.16
2019-02-26T10:36:11.204Z,101948.18
2019-02-26T10:38:40.412Z,101959.39
2019-02-26T10:41:10.375Z,101959.49
2019-02-26T10:43:40.125Z,101964.94
2019-02-26T10:46:10.916Z,101964.37
2019-02-26T10:51:28.709Z,101960.99
2019-02-26T10:53:59.948Z,101950.20
2019-02-26T10:56:30.681Z,101940.28
2019-02-26T10:59:05.396Z,101936.08
2019-02-26T11:01:33.763Z,101940.45
2019-02-26T11:04:04.958Z,101930.68
2019-02-26T11:06:38.273Z,101932.43
2019-02-26T11:09:49.415Z,101933.57
2019-02-26T11:12:16.925Z,101927.12
2019-02-26T11:14:46.434Z,101922.72
2019-02-26T11:17:17.969Z,101922.44
2019-02-26T11:19:47.978Z,101905.00
2019-02-26T11:22:21.289Z,101908.83
2019-02-26T11:24:50.879Z,101908.74
2019-02-26T11:27:21.434Z,101908.69
2019-02-26T11:29:52.087Z,101907.36
2019-02-26T11:32:22.855Z,101915.38
2019-02-26T11:34:52.793Z,101922.29
2019-02-26T11:37:24.842Z,101934.09
2019-02-26T11:39:57.597Z,101930.87
2019-02-26T11:42:28.694Z,101933.23
2019-02-26T11:44:59.295Z,101928.13
2019-02-26T11:47:28.532Z,101932.08
2019-02-26T11:49:59.611Z,101936.75
2019-02-26T11:52:29.799Z,101931.42
2019-02-26T11:55:02.795Z,101926.98
2019-02-26T11:57:34.903Z,101929.70
2019-02-26T12:00:04.091Z,101921.28
2019-02-26T12:02:34.395Z,101922.14
2019-02-26T12:05:05.598Z,101929.21
2019-02-26T12:07:35.654Z,101924.78
2019-02-26T12:10:09.428Z,101915.75
2019-02-26T12:12:37.052Z,101911.25
2019-02-26T12:15:11.920Z,101910.95
2019-02-26T12:20:29.024Z,101899.91
2019-02-26T12:22:58.885Z,101911.23
2019-02-26T12:25:28.395Z,101908.09
2019-02-26T12:28:00.018Z,101907.72
2019-02-26T12:30:29.730Z,101911.13
2019-02-26T12:32:59.634Z,101906.03
2019-02-26T12:35:30.380Z,101912.19
2019-02-26T12:38:16.742Z,101909.34
2019-02-26T12:40:33.924Z,101914.39
2019-02-26T12:43:06.556Z,101910.21
2019-02-26T12:45:37.882Z,101914.19
2019-02-26T12:48:07.147Z,101912.02
2019-02-26T12:50:40.422Z,101907.70
2019-02-26T12:53:12.678Z,101908.23
2019-02-26T12:58:10.638Z,101901.23
2019-02-26T13:00:42.011Z,101897.92
2019-02-26T13:03:12.603Z,101906.07
2019-02-26T13:08:16.574Z,101900.28
2019-02-26T13:10:49.564Z,101890.22
2019-02-26T13:13:15.394Z,101882.23
2019-02-26T13:15:44.806Z,101879.62
2019-02-26T13:18:14.500Z,101872.34
2019-02-26T13:20:43.706Z,101871.84
2019-02-26T13:23:17.816Z,101870.63
2019-02-26T13:25:44.135Z,101868.26
2019-02-26T13:28:13.346Z,101858.75
2019-02-26T13:31:04.389Z,101853.08
2019-02-26T13:33:35.214Z,101853.08
2019-02-26T13:38:58.454Z,101853.55
2019-02-26T13:41:30.282Z,101847.06
2019-02-26T13:43:59.005Z,101850.31
2019-02-26T13:46:28.313Z,101853.87
2019-02-26T13:48:57.894Z,101847.75
2019-02-26T13:51:27.244Z,101849.09
2019-02-26T13:53:56.431Z,101848.50
2019-02-26T13:56:25.922Z,101840.33
2019-02-26T13:58:55.407Z,101838.84
2019-02-26T14:01:24.893Z,101829.61
2019-02-26T14:03:54.112Z,101830.37
2019-02-26T14:06:23.309Z,101834.88
2019-02-26T14:08:52.785Z,101826.78
2019-02-26T14:11:22.269Z,101827.78
2019-02-26T14:13:51.522Z,101824.70
2019-02-26T14:16:20.995Z,101826.48
2019-02-26T14:18:50.541Z,101823.92
2019-02-26T14:21:20.611Z,101818.91
2019-02-26T14:23:50.667Z,101819.89
2019-02-26T14:26:19.884Z,101808.02
2019-02-26T14:28:49.735Z,101809.91
2019-02-26T14:31:19.706Z,101809.22
2019-02-26T14:33:49.478Z,101802.58
2019-02-26T14:36:19.223Z,101796.75
2019-02-26T14:38:48.447Z,101803.64
2019-02-26T14:41:17.919Z,101792.38
2019-02-26T14:43:47.455Z,101790.95
2019-02-26T14:46:17.401Z,101789.43
2019-02-26T14:48:47.196Z,101788.63
2019-02-26T14:51:17.798Z,101788.97
2019-02-26T14:53:49.145Z,101786.37
2019-02-26T14:56:19.172Z,101781.06
2019-02-26T14:58:48.414Z,101780.17
2019-02-26T15:01:18.743Z,101776.67
2019-02-26T15:03:48.453Z,101773.52
2019-02-26T15:06:18.315Z,101767.00
2019-02-26T15:08:48.368Z,101767.98
2019-02-26T15:11:18.137Z,101768.07
2019-02-26T15:13:47.196Z,101761.58
2019-02-26T15:16:19.455Z,101765.36
2019-02-26T15:18:49.477Z,101754.92
2019-02-26T15:21:18.977Z,101746.59
2019-02-26T15:23:50.244Z,101752.33
2019-02-26T15:26:19.442Z,101746.58
2019-02-26T15:28:49.167Z,101750.93
2019-02-26T15:31:19.020Z,101753.23
2019-02-26T15:33:49.014Z,101749.95
2019-02-26T15:36:18.640Z,101745.05
2019-02-26T15:38:48.119Z,101750.88
2019-02-26T15:41:17.629Z,101742.14
2019-02-26T15:43:46.889Z,101737.48
2019-02-26T15:46:16.554Z,101733.37
2019-02-26T15:48:46.042Z,101736.03
2019-02-26T15:51:19.915Z,101735.20
2019-02-26T15:53:46.591Z,101732.14
2019-02-26T15:56:15.912Z,101734.94
2019-02-26T15:58:45.131Z,101726.84
2019-02-26T16:01:15.679Z,101724.39
2019-02-26T16:03:47.576Z,101725.89
2019-02-26T16:06:17.341Z,101726.71
2019-02-26T16:08:47.600Z,101727.31
2019-02-26T16:11:17.685Z,101729.92
2019-02-26T16:13:47.852Z,101729.27
2019-02-26T16:16:18.155Z,101731.20
2019-02-26T16:18:47.990Z,101725.08
2019-02-26T16:21:37.546Z,101729.27
2019-02-26T16:24:07.036Z,101728.26
2019-02-26T16:26:38.453Z,101722.91
2019-02-26T16:29:07.859Z,101721.30
2019-02-26T16:31:37.883Z,101723.23
2019-02-26T16:34:07.338Z,101725.43
2019-02-26T16:36:37.387Z,101719.19
2019-02-26T16:39:07.727Z,101716.50
2019-02-26T16:41:38.344Z,101706.72
2019-02-26T16:44:08.866Z,101705.33
2019-02-26T16:46:39.553Z,101708.05
2019-02-26T16:49:09.788Z,101704.55
2019-02-26T16:51:39.331Z,101707.30
2019-02-26T16:54:10.655Z,101709.80
2019-02-26T17:07:41.258Z,101692.02
2019-02-26T17:10:17.670Z,101687.17
2019-02-26T17:13:06.793Z,101682.74
2019-02-26T17:15:36.586Z,101680.34
2019-02-26T17:18:11.122Z,101676.92
2019-02-26T17:39:49.316Z,101668.02
2019-02-26T17:42:19.563Z,101669.98
2019-02-26T17:44:50.011Z,101672.46
2019-02-26T17:47:19.570Z,101666.80
2019-02-26T17:49:48.961Z,101657.89
2019-02-26T17:52:18.605Z,101665.14
2019-02-26T17:54:49.736Z,101671.77
2019-02-26T17:57:19.626Z,101669.98
2019-02-26T17:59:48.914Z,101666.11
2019-02-26T18:02:19.140Z,101661.27
2019-02-26T18:04:49.163Z,101659.44
2019-02-26T18:07:38.594Z,101658.62
2019-02-26T18:10:12.760Z,101647.00
2019-02-26T18:12:42.760Z,101649.29
2019-02-26T18:18:23.078Z,101641.09
2019-02-26T18:20:52.608Z,101643.11
2019-02-26T18:23:22.233Z,101642.45
2019-02-26T18:25:51.845Z,101632.63
2019-02-26T18:31:35.540Z,101632.44
2019-02-26T18:34:05.723Z,101634.69
2019-02-26T18:36:38.098Z,101642.84
2019-02-26T18:42:02.364Z,101640.93
2019-02-26T18:44:31.899Z,101634.06
2019-02-26T18:47:01.755Z,101617.96
2019-02-26T18:49:31.002Z,101610.98
2019-02-26T18:52:00.646Z,101600.48
2019-02-26T18:54:31.363Z,101602.14
2019-02-26T19:51:42.214Z,101539.85
2019-02-26T19:54:11.508Z,101537.60
2019-02-26T19:56:40.725Z,101526.31
2019-02-26T19:59:13.468Z,101524.25
2019-02-26T20:01:41.974Z,101522.86
2019-02-26T20:04:11.503Z,101520.50
2019-02-26T20:06:42.157Z,101516.17
2019-02-26T20:09:11.867Z,101510.48
2019-02-26T20:11:42.428Z,101516.17
2019-02-26T20:30:39.566Z,101506.50
2019-02-26T20:33:09.568Z,101502.73
2019-02-26T20:35:39.395Z,101505.80
2019-02-26T20:38:09.217Z,101500.11
2019-02-26T20:40:57.050Z,101497.52
2019-02-26T20:43:26.794Z,101502.03
2019-02-26T20:45:56.359Z,101505.36
2019-02-26T20:48:25.836Z,101499.64
2019-02-26T20:50:56.554Z,101508.30
2019-02-26T20:53:45.727Z,101507.22
2019-02-26T20:56:14.976Z,101510.69
2019-02-26T20:58:45.479Z,101482.45
2019-02-26T21:01:16.434Z,101510.12
2019-02-26T21:03:45.899Z,101503.89
2019-02-26T21:06:18.008Z,101508.23
2019-02-26T21:08:47.415Z,101508.37
2019-02-26T21:11:16.998Z,101505.28
2019-02-26T21:13:46.191Z,101512.02
2019-02-26T21:16:18.602Z,101507.40
2019-02-26T21:18:49.559Z,101511.37
2019-02-26T21:21:19.155Z,101506.39
2019-02-26T21:29:58.560Z,101494.87
2019-02-26T21:32:28.401Z,101491.48
2019-02-26T21:34:58.010Z,101492.19
2019-02-26T21:37:27.803Z,101482.05
2019-02-26T21:39:56.995Z,101477.47
2019-02-26T21:42:28.926Z,101481.41
2019-02-26T21:44:58.840Z,101477.64
2019-02-26T21:47:28.100Z,101475.32
2019-02-26T21:49:57.643Z,101480.97
2019-02-26T21:52:27.439Z,101474.88
2019-02-26T21:55:01.203Z,101466.20
2019-02-26T21:57:29.498Z,101472.66
2019-02-26T21:59:59.044Z,101470.17
2019-02-26T22:02:28.536Z,101471.69
2019-02-26T22:04:58.118Z,101475.02
2019-02-26T22:07:27.650Z,101475.15
2019-02-26T22:09:57.306Z,101474.50
2019-02-26T22:12:26.646Z,101477.14
2019-02-26T22:14:56.153Z,101480.81
2019-02-26T22:17:25.869Z,101481.52
2019-02-26T22:19:56.354Z,101484.11
2019-02-26T22:22:26.696Z,101494.08
2019-02-26T22:24:57.999Z,101493.19
2019-02-26T22:27:27.523Z,101482.05
2019-02-26T22:29:57.198Z,101481.95
2019-02-26T22:32:26.743Z,101476.77
2019-02-26T22:34:55.927Z,101474.92
2019-02-26T22:37:25.976Z,101482.44
2019-02-26T22:43:04.763Z,101485.23
2019-02-26T22:45:33.972Z,101483.25
2019-02-26T22:48:03.247Z,101480.61
2019-02-26T22:50:33.072Z,101481.66
2019-02-26T22:53:04.051Z,101486.78
2019-02-26T22:55:34.361Z,101477.73
2019-02-26T22:58:04.175Z,101476.63
2019-02-26T23:01:17.784Z,101481.76
2019-02-26T23:03:47.286Z,101482.95
2019-02-26T23:06:17.228Z,101482.10
2019-02-26T23:08:47.143Z,101477.63
2019-02-26T23:11:17.759Z,101475.59
2019-02-26T23:13:47.050Z,101474.59
2019-02-26T23:16:19.570Z,101481.20
2019-02-26T23:18:49.818Z,101474.18
2019-02-26T23:21:20.386Z,101477.86
2019-02-26T23:43:00.379Z,101481.66
2019-02-26T23:45:30.199Z,101473.98
2019-02-26T23:48:00.299Z,101474.53
2019-02-26T23:53:18.272Z,101472.28
2019-02-26T23:55:47.542Z,101472.62
2019-02-26T23:58:17.057Z,101463.72
